createdAt,value
2023-12-19T00:01:04.356Z,-0.42
2023-12-19T00:04:08.018Z,-0.39
2023-12-19T00:07:10.833Z,-0.56
2023-12-19T00:10:14.014Z,-0.46
2023-12-19T00:13:16.802Z,-0.57
2023-12-19T00:16:19.498Z,-0.65
2023-12-19T00:19:22.349Z,-0.53
2023-12-19T00:22:25.644Z,-0.40
2023-12-19T00:25:29.472Z,-0.51
2023-12-19T00:28:33.267Z,-0.50
2023-12-19T00:31:36.126Z,-0.47
2023-12-19T00:34:39.226Z,-0.51
2023-12-19T00:37:41.939Z,-0.54
2023-12-19T00:40:44.707Z,-0.47
2023-12-19T00:43:47.643Z,-0.45
2023-12-19T00:46:50.367Z,-0.52
2023-12-19T00:49:53.702Z,-0.53
2023-12-19T00:52:59.510Z,-0.60
2023-12-19T00:56:02.245Z,-0.53
2023-12-19T00:59:04.929Z,-0.42
2023-12-19T01:02:07.812Z,-0.36
2023-12-19T01:05:10.578Z,-0.35
2023-12-19T01:08:13.291Z,-0.34
2023-12-19T01:11:16.055Z,-0.29
2023-12-19T01:14:21.473Z,-0.60
2023-12-19T01:17:24.208Z,-1.25
2023-12-19T01:20:26.911Z,-1.56
2023-12-19T01:23:29.641Z,-1.53
2023-12-19T01:26:34.081Z,-1.35
2023-12-19T01:29:36.862Z,-1.12
2023-12-19T01:32:39.650Z,-1.15
2023-12-19T01:35:42.698Z,-1.06
2023-12-19T01:38:45.410Z,-1.04
2023-12-19T01:41:48.113Z,-1.09
2023-12-19T01:45:09.844Z,-0.98
2023-12-19T01:48:13.893Z,-0.94
2023-12-19T01:51:16.721Z,-1.14
2023-12-19T01:54:20.843Z,-1.61
2023-12-19T01:57:23.870Z,-1.82
2023-12-19T02:00:26.781Z,-1.92
2023-12-19T02:03:29.753Z,-1.72
2023-12-19T02:06:36.139Z,-1.60
2023-12-19T02:09:39.112Z,-1.34
2023-12-19T02:12:43.180Z,-1.19
2023-12-19T02:15:46.048Z,-1.24
2023-12-19T02:19:07.054Z,-1.38
2023-12-19T02:22:09.830Z,-1.48
2023-12-19T02:25:12.711Z,-1.33
2023-12-19T02:28:15.509Z,-1.32
2023-12-19T02:31:18.257Z,-1.17
2023-12-19T02:34:21.328Z,-1.15
2023-12-19T02:37:24.053Z,-1.13
2023-12-19T02:40:27.266Z,-1.07
2023-12-19T02:43:29.929Z,-1.06
2023-12-19T02:46:33.618Z,-1.13
2023-12-19T02:49:36.435Z,-1.08
2023-12-19T02:52:39.259Z,-1.24
2023-12-19T02:55:43.362Z,-1.10
2023-12-19T02:58:46.095Z,-1.01
2023-12-19T03:01:51.532Z,-1.11
2023-12-19T03:04:54.580Z,-1.32
2023-12-19T03:07:57.888Z,-1.05
2023-12-19T03:11:00.636Z,-0.91
2023-12-19T03:14:03.344Z,-0.85
2023-12-19T03:17:06.331Z,-0.92
2023-12-19T03:20:09.958Z,-0.88
2023-12-19T03:23:12.784Z,-0.89
2023-12-19T03:26:15.507Z,-0.89
2023-12-19T03:29:18.200Z,-0.88
2023-12-19T03:32:20.973Z,-1.07
2023-12-19T03:35:24.701Z,-0.98
2023-12-19T03:38:27.460Z,-0.97
2023-12-19T03:41:30.082Z,-0.93
2023-12-19T03:44:33.286Z,-0.89
2023-12-19T03:47:36.614Z,-0.87
2023-12-19T03:50:39.278Z,-0.80
2023-12-19T03:53:42.001Z,-1.12
2023-12-19T03:56:44.713Z,-1.50
2023-12-19T03:59:47.369Z,-1.57
2023-12-19T04:02:50.042Z,-1.37
2023-12-19T04:05:52.825Z,-1.15
2023-12-19T04:08:55.623Z,-1.19
2023-12-19T04:12:03.415Z,-1.13
2023-12-19T04:15:06.505Z,-1.32
2023-12-19T04:18:11.746Z,-1.21
2023-12-19T04:21:14.515Z,-1.15
2023-12-19T04:24:17.871Z,-1.05
2023-12-19T04:27:20.517Z,-0.93
2023-12-19T04:30:23.408Z,-0.85
2023-12-19T04:33:26.247Z,-0.82
2023-12-19T04:36:30.933Z,-0.80
2023-12-19T04:39:33.630Z,-0.70
2023-12-19T04:42:36.835Z,-0.60
2023-12-19T04:45:39.535Z,-0.54
2023-12-19T04:48:43.864Z,-0.41
2023-12-19T04:51:46.816Z,-0.57
2023-12-19T04:54:49.712Z,-0.58
2023-12-19T04:57:52.438Z,-0.46
2023-12-19T05:00:55.291Z,-0.45
2023-12-19T05:03:58.061Z,-0.94
2023-12-19T05:07:00.867Z,-1.09
2023-12-19T05:10:05.685Z,-0.92
2023-12-19T05:13:11.246Z,-0.83
2023-12-19T05:16:15.054Z,-0.72
2023-12-19T05:19:17.962Z,-0.67
2023-12-19T05:22:21.356Z,-0.63
2023-12-19T05:25:24.134Z,-0.60
2023-12-19T05:28:26.811Z,-0.59
2023-12-19T05:31:29.573Z,-0.50
2023-12-19T05:34:32.510Z,-0.49
2023-12-19T05:37:35.379Z,-0.47
2023-12-19T05:40:43.189Z,-0.53
2023-12-19T05:43:45.899Z,-0.44
2023-12-19T05:46:48.721Z,-0.48
2023-12-19T05:49:51.586Z,-0.59
2023-12-19T05:52:54.493Z,-0.61
2023-12-19T05:55:57.274Z,-0.84
2023-12-19T05:59:00.285Z,-0.79
2023-12-19T06:02:03.104Z,-0.66
2023-12-19T06:05:09.475Z,-0.54
2023-12-19T06:08:12.206Z,-0.58
2023-12-19T06:11:16.285Z,-0.62
2023-12-19T06:14:19.031Z,-0.66
2023-12-19T06:17:22.133Z,-0.80
2023-12-19T06:20:24.843Z,-1.10
2023-12-19T06:23:28.659Z,-1.35
2023-12-19T06:26:31.412Z,-1.44
2023-12-19T06:29:34.142Z,-1.50
2023-12-19T06:32:37.795Z,-1.29
2023-12-19T06:35:42.460Z,-1.19
2023-12-19T06:38:45.109Z,-1.05
2023-12-19T06:41:47.836Z,-0.97
2023-12-19T06:44:50.963Z,-0.89
2023-12-19T06:47:53.755Z,-0.79
2023-12-19T06:50:56.735Z,-0.65
2023-12-19T06:53:59.433Z,-0.61
2023-12-19T06:57:02.191Z,-0.51
2023-12-19T07:00:07.445Z,-0.57
2023-12-19T07:03:10.352Z,-0.47
2023-12-19T07:06:15.218Z,-0.33
2023-12-19T07:09:18.049Z,-0.14
2023-12-19T07:12:20.810Z,-0.12
2023-12-19T07:15:23.875Z,-0.14
2023-12-19T07:18:26.737Z,-0.01
2023-12-19T07:21:30.934Z,0.21
2023-12-19T07:24:33.846Z,0.30
2023-12-19T07:27:38.424Z,0.50
2023-12-19T07:30:42.099Z,0.76
2023-12-19T07:33:45.042Z,0.79
2023-12-19T07:36:47.995Z,0.79
2023-12-19T07:39:50.919Z,0.86
2023-12-19T07:42:53.668Z,0.90
2023-12-19T07:45:58.899Z,0.96
2023-12-19T07:49:02.032Z,0.97
2023-12-19T07:52:05.644Z,1.01
2023-12-19T07:55:12.224Z,1.07
2023-12-19T07:58:15.228Z,1.14
2023-12-19T08:01:18.416Z,1.22
2023-12-19T08:04:21.621Z,1.26
2023-12-19T08:07:24.399Z,1.33
2023-12-19T08:10:28.067Z,1.39
2023-12-19T08:13:30.949Z,1.47
2023-12-19T08:16:33.960Z,1.56
2023-12-19T08:19:39.222Z,1.67
2023-12-19T08:22:43.501Z,1.45
2023-12-19T08:25:46.305Z,1.45
2023-12-19T08:28:49.693Z,1.61
2023-12-19T08:31:52.517Z,1.72
2023-12-19T08:34:55.517Z,1.78
2023-12-19T08:37:58.534Z,1.83
2023-12-19T08:41:01.611Z,1.90
2023-12-19T08:44:04.641Z,2.02
2023-12-19T08:47:07.467Z,2.06
2023-12-19T08:50:12.012Z,2.17
2023-12-19T08:53:15.191Z,2.22
2023-12-19T08:56:18.341Z,2.33
2023-12-19T08:59:21.247Z,2.26
2023-12-19T09:02:24.140Z,2.12
2023-12-19T09:05:27.230Z,1.94
2023-12-19T09:08:30.338Z,1.94
2023-12-19T09:11:35.184Z,2.08
2023-12-19T09:14:38.518Z,2.21
2023-12-19T09:17:42.585Z,2.28
2023-12-19T09:20:45.749Z,2.36
2023-12-19T09:23:48.929Z,2.42
2023-12-19T09:26:52.010Z,2.39
2023-12-19T09:29:54.774Z,2.61
2023-12-19T09:32:59.209Z,2.60
2023-12-19T09:36:02.489Z,2.76
2023-12-19T09:39:05.924Z,2.82
2023-12-19T09:42:09.065Z,2.77
2023-12-19T09:45:13.790Z,2.90
2023-12-19T09:48:17.118Z,2.96
2023-12-19T09:51:32.024Z,2.96
2023-12-19T09:54:36.540Z,3.12
2023-12-19T09:57:42.659Z,3.21
2023-12-19T10:00:47.049Z,3.13
2023-12-19T10:03:51.710Z,3.15
2023-12-19T10:07:00.527Z,3.03
2023-12-19T10:10:04.627Z,2.97
2023-12-19T10:13:07.981Z,3.16
2023-12-19T10:16:30.876Z,3.27
2023-12-19T10:19:36.732Z,3.49
2023-12-19T10:22:39.985Z,3.60
2023-12-19T10:25:46.465Z,3.64
2023-12-19T10:28:58.639Z,3.72
2023-12-19T10:32:12.675Z,3.73
2023-12-19T10:35:15.790Z,3.76
2023-12-19T10:38:18.892Z,3.84
2023-12-19T10:41:34.836Z,3.90
2023-12-19T10:44:40.676Z,3.99
2023-12-19T10:47:43.908Z,3.99
2023-12-19T10:50:48.521Z,4.13
2023-12-19T10:54:00.574Z,4.25
2023-12-19T10:57:08.449Z,4.34
2023-12-19T11:00:18.985Z,4.24
2023-12-19T11:03:35.044Z,4.09
2023-12-19T11:06:39.305Z,4.23
2023-12-19T11:09:45.289Z,4.32
2023-12-19T11:12:48.573Z,4.31
2023-12-19T11:15:57.013Z,4.51
2023-12-19T11:19:09.994Z,4.42
2023-12-19T11:22:20.030Z,4.45
2023-12-19T11:25:36.015Z,4.45
2023-12-19T11:28:40.176Z,4.49
2023-12-19T11:31:43.218Z,4.50
2023-12-19T11:34:46.138Z,4.60
2023-12-19T11:37:49.477Z,4.64
2023-12-19T11:40:53.359Z,4.62
2023-12-19T11:43:56.520Z,4.67
2023-12-19T11:47:16.315Z,4.67
2023-12-19T11:50:41.155Z,4.85
2023-12-19T11:53:44.377Z,4.77
2023-12-19T11:56:59.032Z,4.65
2023-12-19T12:00:02.873Z,4.74
2023-12-19T12:03:14.791Z,4.60
2023-12-19T12:06:22.366Z,4.75
2023-12-19T12:09:26.677Z,4.80
2023-12-19T12:12:36.898Z,4.67
2023-12-19T12:15:39.900Z,4.61
2023-12-19T12:18:44.563Z,4.72
2023-12-19T12:21:51.812Z,4.83
2023-12-19T12:24:55.287Z,4.41
2023-12-19T12:28:11.377Z,4.65
2023-12-19T12:31:15.352Z,4.68
2023-12-19T12:34:18.696Z,4.60
2023-12-19T12:37:25.886Z,4.65
2023-12-19T12:40:31.112Z,4.75
2023-12-19T12:43:51.607Z,4.80
2023-12-19T12:46:54.677Z,4.84
2023-12-19T12:50:08.352Z,4.78
2023-12-19T12:53:17.825Z,4.80
2023-12-19T12:56:21.280Z,4.84
2023-12-19T12:59:30.349Z,4.82
2023-12-19T13:02:40.655Z,4.72
2023-12-19T13:05:44.356Z,4.55
2023-12-19T13:08:47.829Z,4.48
2023-12-19T13:11:55.823Z,4.46
2023-12-19T13:14:59.164Z,4.30
2023-12-19T13:18:05.691Z,4.41
2023-12-19T13:21:09.712Z,4.41
2023-12-19T13:24:16.002Z,4.20
2023-12-19T13:27:27.312Z,4.21
2023-12-19T13:30:32.874Z,4.22
2023-12-19T13:33:36.532Z,4.22
2023-12-19T13:36:42.684Z,4.16
2023-12-19T13:39:49.752Z,4.15
2023-12-19T13:42:59.700Z,4.13
2023-12-19T13:46:07.183Z,4.07
2023-12-19T13:49:23.157Z,4.02
2023-12-19T13:52:32.934Z,3.99
2023-12-19T13:55:42.423Z,3.99
2023-12-19T13:58:47.486Z,3.94
2023-12-19T14:01:57.067Z,3.89
2023-12-19T14:05:06.921Z,3.82
2023-12-19T14:08:12.553Z,3.76
2023-12-19T14:11:16.028Z,3.74
2023-12-19T14:14:22.325Z,3.68
2023-12-19T14:17:25.261Z,3.55
2023-12-19T14:20:30.341Z,3.49
2023-12-19T14:23:36.020Z,3.45
2023-12-19T14:26:41.212Z,3.35
2023-12-19T14:29:46.239Z,3.31
2023-12-19T14:32:50.181Z,3.15
2023-12-19T14:35:55.682Z,3.09
2023-12-19T14:38:58.623Z,3.00
2023-12-19T14:42:03.085Z,2.93
2023-12-19T14:45:06.926Z,2.91
2023-12-19T14:48:10.997Z,2.86
2023-12-19T14:51:18.675Z,2.87
2023-12-19T14:54:21.941Z,2.76
2023-12-19T14:57:27.099Z,2.66
2023-12-19T15:00:31.101Z,2.48
2023-12-19T15:03:34.487Z,2.45
2023-12-19T15:06:39.101Z,2.39
2023-12-19T15:09:44.990Z,2.37
2023-12-19T15:12:48.814Z,2.29
2023-12-19T15:15:53.301Z,2.13
2023-12-19T15:18:56.866Z,2.13
2023-12-19T15:22:00.903Z,2.02
2023-12-19T15:25:05.991Z,1.94
2023-12-19T15:28:17.211Z,1.91
2023-12-19T15:31:24.182Z,1.83
2023-12-19T15:34:31.704Z,1.80
2023-12-19T15:37:34.994Z,1.80
2023-12-19T15:40:37.981Z,1.77
2023-12-19T15:43:42.823Z,1.78
2023-12-19T15:46:48.856Z,1.83
2023-12-19T15:49:52.282Z,1.86
2023-12-19T15:52:56.856Z,1.80
2023-12-19T15:56:00.454Z,1.74
2023-12-19T15:59:05.558Z,1.68
2023-12-19T16:02:11.955Z,1.66
2023-12-19T16:05:15.959Z,1.57
2023-12-19T16:08:19.040Z,1.53
2023-12-19T16:11:25.651Z,1.56
2023-12-19T16:14:28.891Z,1.50
2023-12-19T16:17:32.402Z,1.49
2023-12-19T16:20:37.729Z,1.42
2023-12-19T16:23:53.101Z,1.37
2023-12-19T16:27:04.473Z,1.32
2023-12-19T16:30:08.166Z,1.28
2023-12-19T16:33:13.320Z,1.28
2023-12-19T16:36:16.431Z,1.26
2023-12-19T16:39:19.245Z,1.19
2023-12-19T16:42:22.879Z,1.13
2023-12-19T16:45:26.043Z,1.25
2023-12-19T16:48:29.333Z,1.16
2023-12-19T16:51:34.070Z,1.17
2023-12-19T16:54:38.039Z,1.21
2023-12-19T16:57:44.138Z,1.28
2023-12-19T17:00:47.294Z,1.22
2023-12-19T17:03:51.095Z,1.08
2023-12-19T17:06:54.993Z,1.09
2023-12-19T17:09:58.341Z,1.13
2023-12-19T17:13:02.113Z,1.14
2023-12-19T17:16:07.781Z,1.12
2023-12-19T17:19:11.143Z,1.09
2023-12-19T17:22:16.478Z,1.12
2023-12-19T17:25:19.515Z,1.08
2023-12-19T17:28:23.363Z,1.10
2023-12-19T17:31:26.781Z,1.10
2023-12-19T17:34:31.118Z,1.11
2023-12-19T17:37:35.331Z,1.08
2023-12-19T17:40:44.307Z,1.10
2023-12-19T17:43:48.328Z,1.10
2023-12-19T17:46:54.118Z,1.02
2023-12-19T17:49:57.504Z,1.11
2023-12-19T17:53:01.287Z,1.05
2023-12-19T17:56:04.842Z,1.04
2023-12-19T17:59:10.372Z,0.99
2023-12-19T18:02:13.889Z,0.93
2023-12-19T18:05:20.157Z,0.86
2023-12-19T18:08:24.307Z,0.84
2023-12-19T18:11:30.158Z,0.85
2023-12-19T18:14:33.782Z,0.88
2023-12-19T18:17:37.384Z,0.95
2023-12-19T18:20:47.416Z,0.94
2023-12-19T18:23:50.768Z,0.90
2023-12-19T18:26:54.203Z,0.91
2023-12-19T18:29:57.428Z,0.98
2023-12-19T18:33:03.840Z,1.04
2023-12-19T18:36:07.703Z,0.93
2023-12-19T18:39:12.132Z,0.94
2023-12-19T18:42:17.066Z,0.91
2023-12-19T18:45:20.056Z,0.85
2023-12-19T18:48:23.327Z,0.82
2023-12-19T18:51:26.512Z,0.76
2023-12-19T18:54:29.566Z,0.68
2023-12-19T18:57:32.516Z,0.61
2023-12-19T19:00:38.510Z,0.56
2023-12-19T19:03:42.174Z,0.58
2023-12-19T19:06:45.149Z,0.55
2023-12-19T19:09:48.524Z,0.49
2023-12-19T19:12:54.889Z,0.40
2023-12-19T19:15:58.678Z,0.43
2023-12-19T19:19:02.710Z,0.35
2023-12-19T19:22:06.216Z,0.29
2023-12-19T19:25:11.984Z,0.27
2023-12-19T19:28:18.046Z,0.30
2023-12-19T19:31:21.482Z,0.26
2023-12-19T19:34:26.800Z,0.16
2023-12-19T19:37:30.857Z,0.23
2023-12-19T19:40:39.253Z,0.23
2023-12-19T19:43:48.610Z,0.24
2023-12-19T19:46:51.532Z,0.20
2023-12-19T19:49:54.510Z,0.17
2023-12-19T19:53:07.322Z,0.16
2023-12-19T19:56:10.849Z,0.13
2023-12-19T19:59:15.561Z,0.07
2023-12-19T20:02:18.349Z,-0.01
2023-12-19T20:05:22.247Z,-0.08
2023-12-19T20:08:26.343Z,-0.03
2023-12-19T20:11:30.576Z,-0.03
2023-12-19T20:14:33.659Z,-0.10
2023-12-19T20:17:36.629Z,-0.19
2023-12-19T20:20:40.330Z,-0.26
2023-12-19T20:23:43.179Z,-0.19
2023-12-19T20:26:45.966Z,-0.16
2023-12-19T20:29:48.876Z,-0.18
2023-12-19T20:32:51.921Z,-0.22
2023-12-19T20:35:54.878Z,-0.13
2023-12-19T20:38:57.882Z,-0.06
2023-12-19T20:42:00.916Z,0.02
2023-12-19T20:45:04.121Z,-0.01
2023-12-19T20:48:07.523Z,-0.01
2023-12-19T20:51:10.611Z,-0.03
2023-12-19T20:54:14.071Z,-0.12
2023-12-19T20:57:16.815Z,-0.17
2023-12-19T21:00:20.364Z,-0.30
2023-12-19T21:03:23.444Z,-0.67
2023-12-19T21:06:26.369Z,-0.63
2023-12-19T21:09:29.342Z,-0.73
2023-12-19T21:12:32.363Z,-0.78
2023-12-19T21:15:36.317Z,-0.74
2023-12-19T21:18:39.214Z,-0.62
2023-12-19T21:21:42.133Z,-0.54
2023-12-19T21:24:44.958Z,-0.43
2023-12-19T21:27:47.920Z,-0.36
2023-12-19T21:30:50.967Z,-0.38
2023-12-19T21:33:53.855Z,-0.31
2023-12-19T21:36:56.809Z,-0.27
2023-12-19T21:40:00.378Z,-0.32
2023-12-19T21:43:03.738Z,-0.35
2023-12-19T21:46:06.707Z,-0.27
2023-12-19T21:49:10.201Z,-0.20
2023-12-19T21:52:13.361Z,-0.18
2023-12-19T21:55:16.225Z,-0.11
2023-12-19T21:58:19.082Z,-0.16
2023-12-19T22:01:22.386Z,-0.15
2023-12-19T22:04:25.517Z,-0.09
2023-12-19T22:07:28.528Z,-0.08
2023-12-19T22:10:31.498Z,-0.01
2023-12-19T22:13:34.267Z,-0.07
2023-12-19T22:16:37.053Z,-0.03
2023-12-19T22:19:40.157Z,0.06
2023-12-19T22:22:43.501Z,0.07
2023-12-19T22:25:46.294Z,-0.01
2023-12-19T22:28:49.556Z,-0.03
2023-12-19T22:31:53.226Z,0.08
2023-12-19T22:34:56.021Z,0.12
2023-12-19T22:38:03.250Z,0.16
2023-12-19T22:41:06.358Z,0.14
2023-12-19T22:44:09.048Z,0.23
2023-12-19T22:47:11.859Z,0.21
2023-12-19T22:50:14.593Z,0.12
2023-12-19T22:53:17.342Z,-0.05
2023-12-19T22:56:20.781Z,-0.38
2023-12-19T22:59:23.502Z,-0.28
2023-12-19T23:02:26.358Z,-0.13
2023-12-19T23:05:29.774Z,-0.07
2023-12-19T23:08:32.479Z,-0.12
2023-12-19T23:11:35.151Z,-0.06
2023-12-19T23:14:41.972Z,-0.04
2023-12-19T23:17:44.860Z,-0.05
2023-12-19T23:20:47.802Z,-0.02
2023-12-19T23:23:51.582Z,0.05
2023-12-19T23:26:54.818Z,0.13
2023-12-19T23:29:57.773Z,0.13
2023-12-19T23:33:00.498Z,0.12
2023-12-19T23:36:04.036Z,0.15
2023-12-19T23:39:06.909Z,0.22
2023-12-19T23:42:09.686Z,0.24
2023-12-19T23:45:12.474Z,0.18
2023-12-19T23:48:15.369Z,0.06
2023-12-19T23:51:18.792Z,0.13
2023-12-19T23:54:21.541Z,0.09
2023-12-19T23:57:24.418Z,0.02
